Airfield :
LOGIN :

Register | Disclaimer

   EN    FR    IT 

 










Legend :    VFR   Marginal VFR   IFR   Intensive IFR   Very Intensive IFR
Visi :
Ceiling :
>= 8 km
>= 3000ft
5 to 8 km
1000 to 3000 ft
1500m to 5 km
500 to 1000 ft
800 to 1500m
200 to 500 ft
< 800m
< 200 ft
Symbols :   Thunderstorms  Fog  Heavy snow  Heavy precipitations  Wind > 20 kt
SIGMETs :     Misc.  Thunderstorms  Icing  Turbulence  Mountain Waves  Volcanic Ashes







- Airport Elevation : 512 ft
- IATA code : URO
- Download approach charts


LFOP - Rouen Vallée de Seine

CURRENT METAR :
  • 171400Z AUTO 22004KT 140V270 9999 FEW048 25/14 Q1018 BECMG 36010KT

EXPIRED METARs :
  • 171330Z AUTO 14005KT 100V190 9999 SCT047 SCT056 24/14 Q1018 BECMG 36010KT
  • 171300Z AUTO VRB03KT 9999 SCT044 BKN058 24/14 Q1018 NOSIG
  • 171230Z AUTO VRB02KT 9999 BKN043 BKN058 23/15 Q1018 NOSIG
  • 171200Z AUTO VRB04KT 9999 BKN042 BKN048 OVC054 24/15 Q1019 NOSIG
  • 171130Z AUTO 21006KT 180V240 9999 BKN042 BKN050 22/14 Q1019 NOSIG

TAF TAF LFOP
Valid from the 17 at 12:00 until the 18 at 12:00 UTC


171100Z 1712/1812 18006KT 9999 SCT040
BECMG 1715/1717 36010KT
BECMG 1800/1803 06003KT
ATIS : +33 2 35 80 80 34
Met : +33 2 32 86 52 80
No reported NOTAMs for that airfield.



MET'MAP, your aeronautical weather chart ! - Copyright ORBIFLY December 2007 - Disclaimer

ORBIFLY MET'MAP TEAM :

Programming & Development : Alexandra Zaïnal
Concept & Development : Baudouin d'Aumeries
Co-Development & Prog : Marc-Olivier Méhu
Technical & hardware support : Manuel Goepfert

Contact : metmap@orbifly.com




SOURCES & CREDITS :

   NOAA